Weather station in Munich

Current measurement: 21.1°C and 956.41hPa and 77.12% humidity and 292ppm CO2
(at 2024-05-23 05:49:27 )

Previous Measurements

Show/Hide
IDdevice_idTemperaturePressureHumidityCO2Timestamp
16892weather8080721.1°C956.41hPa77.12%292ppm2024-05-23 05:49:27
16891weather8080721.1°C956.32hPa77.12%284ppm2024-05-23 05:34:04
16890weather8080721.1°C956.22hPa77.14%309ppm2024-05-23 05:18:40
16889weather8080721.1°C956.16hPa77.12%292ppm2024-05-23 05:03:16
16888weather8080721.1°C956.05hPa77.04%321ppm2024-05-23 04:47:52
16887weather8080721.1°C956hPa73.21%2228ppm2024-05-23 04:32:29
16886weather8080721.1°C956.05hPa73.24%2285ppm2024-05-23 04:17:06
16885weather8080721.1°C956hPa77.45%274ppm2024-05-23 03:46:20
16884weather8080721.2°C955.85hPa77.49%272ppm2024-05-23 03:30:57
16883weather8080721.2°C955.91hPa77.5%314ppm2024-05-23 03:15:32
16882weather8080721.2°C955.91hPa77.51%294ppm2024-05-23 03:00:09
16881weather8080721.2°C955.95hPa77.56%308ppm2024-05-23 02:44:45
16880weather8080721.2°C955.88hPa77.61%275ppm2024-05-23 02:29:21
16879weather8080721.2°C955.83hPa77.63%304ppm2024-05-23 02:13:57
16878weather8080721.2°C955.86hPa77.69%278ppm2024-05-23 01:58:34
16877weather8080721.2°C956.01hPa77.71%291ppm2024-05-23 01:43:10
16876weather8080721.3°C956.16hPa77.75%303ppm2024-05-23 01:27:47
16875weather8080721.3°C956.07hPa77.8%297ppm2024-05-23 01:12:25
16874weather8080721.3°C955.96hPa77.83%363ppm2024-05-23 00:57:01
16873weather8080721.3°C955.99hPa77.81%331ppm2024-05-23 00:41:37
16872weather8080721.3°C955.99hPa73.95%2327ppm2024-05-23 00:26:13
16871weather8080721.3°C955.97hPa73.93%2329ppm2024-05-23 00:10:50
16870weather8080721.3°C955.82hPa78.33%360ppm2024-05-22 23:40:06
16869weather8080721.4°C955.92hPa78.33%358ppm2024-05-22 23:24:43
16868weather8080721.4°C955.72hPa78.27%383ppm2024-05-22 23:09:18
16867weather8080721.4°C955.57hPa74.3%2468ppm2024-05-22 22:53:54
16866weather8080721.4°C955.55hPa74.29%2438ppm2024-05-22 22:38:32
16865weather8080721.5°C955.62hPa74.37%2455ppm2024-05-22 22:07:48
16864weather8080721.5°C955.34hPa78.77%479ppm2024-05-22 21:37:03
16863weather8080721.5°C955.23hPa78.64%518ppm2024-05-22 21:21:40
16862weather8080721.6°C954.88hPa74.54%2625ppm2024-05-22 21:06:18
16861weather8080721.6°C954.66hPa74.52%2592ppm2024-05-22 20:50:55
16860weather8080721.6°C954.36hPa73.86%2565ppm2024-05-22 20:20:09
16859weather8080721.7°C954.01hPa73.89%2529ppm2024-05-22 20:04:45
16858weather8080721.7°C953.69hPa74.54%2641ppm2024-05-22 19:34:00
16857weather8080721.7°C953.25hPa75.11%2916ppm2024-05-22 19:03:15
16856weather8080721.8°C953.22hPa75.09%2911ppm2024-05-22 18:47:52
16855weather8080721.9°C953.11hPa75.43%3051ppm2024-05-22 18:17:08
16854weather8080721.7°C952.94hPa75.57%3022ppm2024-05-22 17:46:24
16853weather8080721.8°C953.32hPa75.68%3180ppm2024-05-22 17:15:39
16852weather8080721.9°C953.36hPa80.23%1107ppm2024-05-22 16:44:55
16851weather8080721.9°C953.47hPa80.47%1290ppm2024-05-22 16:29:31
16850weather8080721.9°C953.37hPa80.69%1663ppm2024-05-22 16:14:08
16849weather8080722°C953.54hPa80.91%1884ppm2024-05-22 15:58:44
16848weather8080721.8°C953.51hPa80.66%1731ppm2024-05-22 15:43:20
16847weather8080721.9°C953.18hPa80.52%1773ppm2024-05-22 15:27:58
16846weather8080722°C952.85hPa80.58%1644ppm2024-05-22 15:12:34
16845weather8080721.9°C952.96hPa80.48%1525ppm2024-05-22 14:57:11
16844weather8080721.9°C952.93hPa80.29%1388ppm2024-05-22 14:41:48
16843weather8080722°C952.94hPa80.44%1332ppm2024-05-22 14:26:26
16842weather8080721.9°C952.89hPa79.96%1226ppm2024-05-22 14:11:02
16841weather8080721.9°C952.99hPa79.64%1078ppm2024-05-22 13:55:39
16840weather8080722°C952.93hPa75.64%3099ppm2024-05-22 13:40:15
16839weather8080722°C952.94hPa75.57%3286ppm2024-05-22 13:24:52
16838weather8080721.9°C952.88hPa76.14%3259ppm2024-05-22 12:54:09
16837weather8080721.8°C952.92hPa79.62%726ppm2024-05-22 12:23:24
16836weather8080721.9°C952.9hPa80.03%643ppm2024-05-22 12:08:00
16835weather8080721.8°C952.89hPa80.23%734ppm2024-05-22 11:52:36
16834weather8080721.8°C952.75hPa76.28%2798ppm2024-05-22 11:37:12
16833weather8080721.7°C952.79hPa76.23%2828ppm2024-05-22 11:21:50
16832weather8080721.7°C952.65hPa77.96%553ppm2024-05-22 10:51:05
16831weather8080721.6°C952.57hPa78.2%691ppm2024-05-22 10:35:41
16830weather8080721.6°C952.57hPa77.84%608ppm2024-05-22 10:20:18
16829weather8080721.6°C952.52hPa77.75%570ppm2024-05-22 10:04:54
16828weather8080721.6°C952.47hPa77.44%484ppm2024-05-22 09:49:32
16827weather8080721.5°C952.4hPa73.75%2259ppm2024-05-22 09:34:09
16826weather8080721.4°C952.3hPa73.77%2563ppm2024-05-22 09:18:46
16825weather8080721.3°C952.06hPa74.2%2520ppm2024-05-22 08:48:02
16824weather8080721.3°C951.8hPa76.75%299ppm2024-05-22 08:17:16
16823weather8080721.3°C951.64hPa77%240ppm2024-05-22 08:01:52
16822weather8080721.2°C951.59hPa77.11%267ppm2024-05-22 07:46:28
16821weather8080721.2°C951.49hPa77.22%278ppm2024-05-22 07:31:05
16820weather8080721.2°C951.39hPa77.29%251ppm2024-05-22 07:15:42
16819weather8080721.2°C951.27hPa77.36%271ppm2024-05-22 07:00:20
16818weather8080721.2°C950.98hPa77.34%270ppm2024-05-22 06:44:57
16817weather8080721.2°C950.91hPa77.39%258ppm2024-05-22 06:29:34
16816weather8080721.2°C950.9hPa77.42%254ppm2024-05-22 06:14:11
16815weather8080721.2°C950.71hPa77.48%271ppm2024-05-22 05:58:47
16814weather8080721.2°C950.49hPa73.64%2261ppm2024-05-22 05:43:24
16813weather8080721.2°C950.55hPa73.65%2249ppm2024-05-22 05:28:02
16812weather8080721.2°C950.41hPa73.96%2288ppm2024-05-22 04:57:18
16811weather8080721.3°C950.23hPa74.06%2297ppm2024-05-22 04:26:32
16810weather8080721.3°C950.21hPa74.09%2283ppm2024-05-22 04:11:09
16809weather8080721.3°C950.13hPa73.99%2274ppm2024-05-22 03:40:25
16808weather8080721.3°C950.07hPa74.23%2272ppm2024-05-22 03:09:41
16807weather8080721.3°C950.08hPa74.29%2316ppm2024-05-22 02:38:57
16806weather8080721.4°C950.17hPa74.49%2348ppm2024-05-22 02:08:14
16805weather8080721.4°C950.2hPa74.81%2374ppm2024-05-22 01:37:30
16804weather8080721.5°C950.13hPa79.14%298ppm2024-05-22 01:06:45
16803weather8080721.5°C950.18hPa79.11%311ppm2024-05-22 00:51:21
16802weather8080721.5°C950.21hPa75.27%2233ppm2024-05-22 00:35:58
16801weather8080721.5°C950.25hPa75.29%2295ppm2024-05-22 00:20:36
16800weather8080721.6°C950.3hPa75.73%2363ppm2024-05-21 23:49:51
16799weather8080721.6°C950.11hPa80.34%397ppm2024-05-21 23:19:05
16798weather8080721.6°C950.04hPa76.6%2405ppm2024-05-21 23:03:42
16797weather8080721.6°C949.93hPa76.6%2410ppm2024-05-21 22:48:20
16796weather8080721.6°C949.8hPa82.11%454ppm2024-05-21 22:17:35
16795weather8080721.7°C949.67hPa82.75%575ppm2024-05-21 22:02:12
16794weather8080721.7°C949.54hPa83.28%642ppm2024-05-21 21:46:48
16793weather8080721.6°C949.32hPa84.76%659ppm2024-05-21 21:31:24
16792weather8080721.7°C949.21hPa84.03%883ppm2024-05-21 21:16:01
16791weather8080721.7°C949.05hPa81.14%721ppm2024-05-21 21:00:38
16790weather8080721.7°C948.96hPa81.46%729ppm2024-05-21 20:45:15
16789weather8080721.8°C948.95hPa81.31%671ppm2024-05-21 20:29:52
16788weather8080721.8°C948.83hPa81.19%690ppm2024-05-21 20:14:29
16787weather8080721.8°C948.83hPa80.05%718ppm2024-05-21 19:59:07
16786weather8080721.8°C948.85hPa79.36%746ppm2024-05-21 19:43:44
16785weather8080721.9°C948.71hPa78.78%675ppm2024-05-21 19:28:21
16784weather8080722°C948.58hPa78.14%441ppm2024-05-21 19:12:57
16783weather8080721.9°C948.51hPa77.6%304ppm2024-05-21 18:57:33
16782weather8080721.9°C948.49hPa77.66%301ppm2024-05-21 18:42:09
16781weather8080721.9°C948.43hPa77.7%287ppm2024-05-21 18:26:47
16780weather8080721.9°C948.34hPa77.73%283ppm2024-05-21 18:11:23
16779weather8080721.9°C948.29hPa77.79%280ppm2024-05-21 17:55:59
16778weather8080722°C948.24hPa77.83%306ppm2024-05-21 17:40:35
16777weather8080722°C948.23hPa77.84%370ppm2024-05-21 17:25:12
16776weather8080722°C948.11hPa77.78%348ppm2024-05-21 17:09:48
16775weather8080722°C947.95hPa73.91%2328ppm2024-05-21 16:54:24
16774weather8080722°C948.02hPa73.92%2359ppm2024-05-21 16:39:02
16773weather8080722°C947.83hPa74.14%2243ppm2024-05-21 16:08:17
16772weather8080722°C947.89hPa74.16%2271ppm2024-05-21 15:52:55
16771weather8080722°C947.78hPa78.88%325ppm2024-05-21 15:22:10
16770weather8080722.1°C947.76hPa79.11%362ppm2024-05-21 15:06:47
16769weather8080722.1°C947.91hPa79.33%335ppm2024-05-21 14:51:23
16768weather8080722.1°C947.95hPa79.43%349ppm2024-05-21 14:35:59
16767weather8080722.1°C947.8hPa79.64%359ppm2024-05-21 14:20:37
16766weather8080722.1°C947.83hPa79.74%425ppm2024-05-21 14:05:14
16765weather8080722.3°C947.91hPa80.11%480ppm2024-05-21 13:49:52
16764weather8080722.3°C947.85hPa80.01%486ppm2024-05-21 13:34:29
16763weather8080722.3°C947.91hPa79.28%496ppm2024-05-21 13:19:05
16762weather8080722.2°C947.91hPa75.3%2372ppm2024-05-21 13:03:41
16761weather8080722.2°C947.91hPa75.26%2627ppm2024-05-21 12:48:18
16760weather8080722.1°C947.78hPa75.48%2767ppm2024-05-21 12:17:33
16759weather8080722.2°C947.56hPa74.95%2870ppm2024-05-21 11:46:49
16758weather8080722.3°C947.33hPa75.29%2910ppm2024-05-21 11:16:06
16757weather8080722°C947.18hPa78.9%619ppm2024-05-21 10:45:19
16756weather8080722°C947.2hPa79.22%612ppm2024-05-21 10:29:55
16755weather8080722°C947.1hPa79.49%650ppm2024-05-21 10:14:32
16754weather8080722°C947.11hPa79.79%599ppm2024-05-21 09:59:09
16753weather8080722°C947.08hPa80.29%651ppm2024-05-21 09:43:46
16752weather8080722°C946.93hPa81.01%632ppm2024-05-21 09:28:24
16751weather8080722°C946.93hPa81.9%771ppm2024-05-21 09:12:59
16750weather8080722°C946.96hPa78.69%729ppm2024-05-21 08:57:36
16749weather8080722°C946.78hPa77.47%744ppm2024-05-21 08:42:13
16748weather8080721.9°C946.91hPa77.76%762ppm2024-05-21 08:26:51
16747weather8080721.8°C946.98hPa78.2%895ppm2024-05-21 08:11:26
16746weather8080721.7°C946.65hPa74.13%3211ppm2024-05-21 07:56:02
16745weather8080721.7°C946.3hPa74.08%3110ppm2024-05-21 07:40:39
16744weather8080721.6°C946.22hPa72.03%2331ppm2024-05-21 07:09:55
16743weather8080721.5°C946.28hPa71.85%2331ppm2024-05-21 06:39:10
16742weather8080721.6°C946.39hPa71.77%2347ppm2024-05-21 06:08:23
16741weather8080721.5°C946.3hPa75.54%311ppm2024-05-21 05:37:38
16740weather8080721.5°C946.23hPa71.61%2059ppm2024-05-21 05:22:15
16739weather8080721.6°C946.21hPa71.62%2318ppm2024-05-21 05:06:52
16738weather8080721.6°C946.25hPa75.64%312ppm2024-05-21 04:36:07
16737weather8080721.6°C946.34hPa75.6%319ppm2024-05-21 04:20:44
16736weather8080721.6°C946.4hPa75.58%303ppm2024-05-21 04:05:20
16735weather8080721.6°C946.44hPa75.52%330ppm2024-05-21 03:49:55
16734weather8080721.6°C946.53hPa75.45%319ppm2024-05-21 03:34:32
16733weather8080721.6°C946.69hPa75.4%355ppm2024-05-21 03:19:09
16732weather8080721.6°C946.75hPa75.37%330ppm2024-05-21 03:03:45
16731weather8080721.6°C946.68hPa75.18%296ppm2024-05-21 02:48:21
16730weather8080721.7°C946.79hPa71.11%2085ppm2024-05-21 02:32:59
16729weather8080721.7°C947hPa71.11%2290ppm2024-05-21 02:17:36
16728weather8080721.7°C947.5hPa71.05%2287ppm2024-05-21 01:46:50
16727weather8080721.7°C947.73hPa75%335ppm2024-05-21 01:16:04
16726weather8080721.7°C947.88hPa74.95%288ppm2024-05-21 01:00:41
16725weather8080721.7°C948.08hPa74.65%330ppm2024-05-21 00:45:18
16724weather8080721.7°C948.24hPa70.7%2281ppm2024-05-21 00:29:54
16723weather8080721.7°C948.29hPa70.72%2282ppm2024-05-21 00:14:32
16722weather8080721.6°C948.4hPa70.75%2324ppm2024-05-20 23:43:48
16721weather8080721.7°C948.63hPa70.91%2344ppm2024-05-20 23:13:04
16720weather8080721.6°C949hPa71.23%2393ppm2024-05-20 22:42:20
16719weather8080721.6°C949.03hPa75.62%419ppm2024-05-20 22:11:35
16718weather8080721.7°C948.97hPa75.91%447ppm2024-05-20 21:56:12
16717weather8080721.7°C949.04hPa75.81%451ppm2024-05-20 21:40:49
16716weather8080721.7°C949.03hPa75.8%462ppm2024-05-20 21:25:26
16715weather8080721.7°C949.12hPa75.75%512ppm2024-05-20 21:10:03
16714weather8080721.7°C949.01hPa75.82%522ppm2024-05-20 20:54:39
16713weather8080721.7°C949.06hPa75.73%532ppm2024-05-20 20:39:17
16712weather8080721.7°C949.08hPa75.68%472ppm2024-05-20 20:23:53
16711weather8080721.8°C949.13hPa75.66%485ppm2024-05-20 20:08:29
16710weather8080721.8°C949.09hPa75.57%554ppm2024-05-20 19:53:05
16709weather8080721.9°C949.13hPa75.66%562ppm2024-05-20 19:37:41
16708weather8080721.9°C949.22hPa75.73%634ppm2024-05-20 19:22:19
16707weather8080721.9°C949.14hPa75.44%614ppm2024-05-20 19:06:56
16706weather8080721.9°C949.08hPa71.46%2597ppm2024-05-20 18:51:31
16705weather8080721.9°C949.2hPa71.45%2611ppm2024-05-20 18:36:09
16704weather8080721.8°C948.87hPa74.9%310ppm2024-05-20 18:05:23
16703weather8080721.9°C949.12hPa74.81%310ppm2024-05-20 17:50:00
16702weather8080721.8°C949.24hPa74.8%323ppm2024-05-20 17:34:36
16701weather8080721.8°C949.25hPa74.82%340ppm2024-05-20 17:19:12
16700weather8080721.8°C949.45hPa74.61%296ppm2024-05-20 17:03:48
16699weather8080721.9°C949.75hPa70.89%2289ppm2024-05-20 16:48:24
16698weather8080721.9°C949.9hPa70.87%2297ppm2024-05-20 16:33:02
16697weather8080721.8°C950.05hPa75.23%279ppm2024-05-20 16:02:15
16696weather8080721.8°C950.01hPa75.16%294ppm2024-05-20 15:46:51
16695weather8080721.9°C950.08hPa75.08%331ppm2024-05-20 15:31:27
16694weather8080721.9°C950.27hPa71.52%2411ppm2024-05-20 15:16:05
16693weather8080721.8°C950.47hPa71.54%2383ppm2024-05-20 15:00:41
16692weather8080721.7°C950.61hPa75.3%251ppm2024-05-20 14:29:55
16691weather8080721.7°C950.92hPa71.5%2186ppm2024-05-20 14:14:31
16690weather8080721.7°C951.3hPa71.49%2226ppm2024-05-20 13:59:08
16689weather8080721.7°C951.45hPa75.63%233ppm2024-05-20 13:28:23
16688weather8080721.6°C951.53hPa75.67%230ppm2024-05-20 13:13:00
16687weather8080721.6°C951.65hPa75.7%279ppm2024-05-20 12:57:38
16686weather8080721.7°C951.56hPa75.66%224ppm2024-05-20 12:42:15
16685weather8080721.7°C951.67hPa75.7%257ppm2024-05-20 12:26:51
16684weather8080721.6°C951.69hPa75.67%251ppm2024-05-20 12:11:27
16683weather8080721.7°C951.89hPa75.67%213ppm2024-05-20 11:56:05
16682weather8080721.7°C951.92hPa75.6%245ppm2024-05-20 11:40:41
16681weather8080721.7°C951.86hPa75.56%218ppm2024-05-20 11:25:16
16680weather8080721.8°C951.97hPa75.46%256ppm2024-05-20 11:09:52
16679weather8080721.7°C951.98hPa75.46%257ppm2024-05-20 10:54:28
16678weather8080721.7°C951.96hPa75.44%249ppm2024-05-20 10:39:04
16677weather8080721.7°C951.92hPa75.26%244ppm2024-05-20 10:23:42
16676weather8080721.6°C951.91hPa71.31%2205ppm2024-05-20 10:08:19
16675weather8080721.7°C951.91hPa71.36%2221ppm2024-05-20 09:52:56
16674weather8080721.5°C952.07hPa75.34%261ppm2024-05-20 09:22:11
16673weather8080721.4°C952.19hPa75.42%247ppm2024-05-20 09:06:48
16672weather8080721.4°C952.3hPa75.5%257ppm2024-05-20 08:51:25
16671weather8080721.5°C952.28hPa75.59%288ppm2024-05-20 08:36:02
16670weather8080721.5°C952.27hPa75.67%283ppm2024-05-20 08:20:38
16669weather8080721.4°C952.34hPa75.77%276ppm2024-05-20 08:05:14
16668weather8080720.9°C952.36hPa75.68%253ppm2024-05-20 07:49:50
16667weather8080720.8°C952.22hPa75.7%235ppm2024-05-20 07:34:26
16666weather8080720.8°C952.37hPa75.78%275ppm2024-05-20 07:19:02
16665weather8080720.8°C952.34hPa75.7%261ppm2024-05-20 07:03:39
16664weather8080720.8°C952.36hPa72.05%2139ppm2024-05-20 06:48:17
16663weather8080720.8°C952.3hPa72.08%2207ppm2024-05-20 06:32:53
16662weather8080720.8°C951.96hPa76.05%253ppm2024-05-20 06:02:08
16661weather8080720.8°C952.08hPa76.05%288ppm2024-05-20 05:46:44
16660weather8080720.8°C952.15hPa76.06%203ppm2024-05-20 05:31:21
16659weather8080720.8°C951.92hPa75.95%234ppm2024-05-20 05:15:58
16658weather8080720.8°C952.01hPa72.28%2195ppm2024-05-20 05:00:36
16657weather8080720.9°C952.07hPa72.3%2186ppm2024-05-20 04:45:13
16656weather8080720.9°C952.14hPa72.45%2196ppm2024-05-20 04:14:27
16655weather8080720.9°C952.09hPa76.44%256ppm2024-05-20 03:43:41
16654weather8080720.9°C952.08hPa76.52%246ppm2024-05-20 03:28:18
16653weather8080720.9°C952.16hPa76.5%250ppm2024-05-20 03:12:54
16652weather8080720.9°C952.19hPa76.47%226ppm2024-05-20 02:57:30
16651weather8080721°C952.29hPa72.75%2230ppm2024-05-20 02:42:07
16650weather8080721.1°C952.24hPa72.77%2198ppm2024-05-20 02:26:44
16649weather8080721°C952.24hPa76.57%238ppm2024-05-20 01:55:59
16648weather8080721.1°C952.21hPa76.56%218ppm2024-05-20 01:40:35
16647weather8080721.1°C952.37hPa76.5%248ppm2024-05-20 01:25:12
16646weather8080721.1°C952.53hPa76.51%230ppm2024-05-20 01:09:49
16645weather8080721.1°C952.41hPa76.51%232ppm2024-05-20 00:54:26
16644weather8080721.1°C952.7hPa76.48%232ppm2024-05-20 00:39:01
16643weather8080721.2°C952.85hPa76.46%238ppm2024-05-20 00:23:39
16642weather8080721.2°C952.7hPa76.43%245ppm2024-05-20 00:08:16
16641weather8080721.2°C952.63hPa76.37%251ppm2024-05-19 23:52:52
16640weather8080721.2°C952.59hPa76.34%245ppm2024-05-19 23:37:29
16639weather8080721.2°C952.37hPa76.3%274ppm2024-05-19 23:22:06
16638weather8080721.2°C952.25hPa76.26%236ppm2024-05-19 23:06:41
16637weather8080721.2°C952.28hPa76.22%234ppm2024-05-19 22:51:17
16636weather8080721.3°C952.12hPa76.26%262ppm2024-05-19 22:35:54
16635weather8080721.3°C952.13hPa76.26%270ppm2024-05-19 22:20:30
16634weather8080721.2°C952.21hPa76.27%241ppm2024-05-19 22:05:07
16633weather8080721.2°C951.78hPa76.26%225ppm2024-05-19 21:49:43
16632weather8080721.3°C951.69hPa76.23%266ppm2024-05-19 21:34:19
16631weather8080721.3°C951.41hPa76.19%235ppm2024-05-19 21:18:56
16630weather8080721.3°C951.28hPa76.17%238ppm2024-05-19 21:03:32
16629weather8080721.3°C951.24hPa76.19%272ppm2024-05-19 20:48:09
16628weather8080721.3°C951.11hPa76.18%250ppm2024-05-19 20:32:46
16627weather8080721.3°C951.24hPa76.22%282ppm2024-05-19 20:17:22
16626weather8080721.4°C951.18hPa76.25%236ppm2024-05-19 20:01:58
16625weather8080721.4°C951.26hPa76.31%246ppm2024-05-19 19:46:35
16624weather8080721.4°C950.9hPa76.25%302ppm2024-05-19 19:31:12
16623weather8080721.4°C950.84hPa76.2%278ppm2024-05-19 19:15:49
16622weather8080721.4°C950.86hPa76.18%302ppm2024-05-19 19:00:24
16621weather8080721.4°C950.82hPa76.02%285ppm2024-05-19 18:45:01
16620weather8080721.4°C950.88hPa72.08%2234ppm2024-05-19 18:29:38
16619weather8080721.4°C950.92hPa72.07%2211ppm2024-05-19 18:14:14
16618weather8080721.4°C951.05hPa76.08%243ppm2024-05-19 17:43:30
16617weather8080721.4°C951.17hPa76.15%264ppm2024-05-19 17:28:07
16616weather8080721.4°C951.24hPa76.11%224ppm2024-05-19 17:12:44
16615weather8080721.5°C951.31hPa76.01%214ppm2024-05-19 16:57:21
16614weather8080721.5°C951.3hPa75.94%268ppm2024-05-19 16:41:57
16613weather8080721.5°C951.24hPa75.66%251ppm2024-05-19 16:26:33
16612weather8080721.5°C951.38hPa71.69%2189ppm2024-05-19 16:11:11
16611weather8080721.5°C951.41hPa71.7%2170ppm2024-05-19 15:55:47
16610weather8080721.5°C951.76hPa71.79%2178ppm2024-05-19 15:25:02
16609weather8080721.5°C951.91hPa75.88%206ppm2024-05-19 14:54:18
16608weather8080721.5°C952.05hPa75.82%232ppm2024-05-19 14:38:55
16607weather8080721.5°C952.3hPa71.83%2201ppm2024-05-19 14:23:32
16606weather8080721.5°C952.53hPa71.83%2174ppm2024-05-19 14:08:09
16605weather8080721.5°C952.68hPa71.83%2178ppm2024-05-19 13:37:22
16604weather8080721.5°C952.76hPa71.8%2172ppm2024-05-19 13:21:58
16603weather8080721.5°C953.1hPa71.83%2168ppm2024-05-19 12:51:13
16602weather8080721.5°C953.24hPa72.14%2197ppm2024-05-19 12:20:30
16601weather8080721.5°C953.41hPa76.33%241ppm2024-05-19 11:49:44
16600weather8080721.5°C953.53hPa76.51%263ppm2024-05-19 11:34:21
16599weather8080721.4°C953.67hPa76.4%234ppm2024-05-19 11:18:57
16598weather8080721.5°C953.66hPa76.53%259ppm2024-05-19 11:03:34
16597weather8080721.4°C953.67hPa76.58%254ppm2024-05-19 10:48:11
16596weather8080721.4°C953.57hPa76.58%247ppm2024-05-19 10:32:48
16595weather8080721.5°C953.56hPa76.65%211ppm2024-05-19 10:17:25
16594weather8080721.4°C953.58hPa76.71%288ppm2024-05-19 10:02:01
16593weather8080721.4°C953.56hPa76.6%216ppm2024-05-19 09:46:37
16592weather8080721.3°C953.51hPa76.5%229ppm2024-05-19 09:31:15
16591weather8080721.2°C953.71hPa76.55%247ppm2024-05-19 09:15:51
16590weather8080721.1°C953.63hPa76.49%247ppm2024-05-19 09:00:26
16589weather8080721.1°C953.6hPa76.51%256ppm2024-05-19 08:45:02
16588weather8080721.1°C953.47hPa76.41%222ppm2024-05-19 08:29:39
16587weather8080721.1°C953.47hPa76.24%213ppm2024-05-19 08:14:16
16586weather8080721.1°C953.5hPa72.3%1967ppm2024-05-19 07:58:52
16585weather8080721.1°C953.43hPa72.31%2186ppm2024-05-19 07:43:29
16584weather8080721°C953.33hPa72.49%2197ppm2024-05-19 07:12:45
16583weather8080720.9°C953.16hPa72.69%2195ppm2024-05-19 06:42:02
16582weather8080720.9°C953.21hPa72.9%2205ppm2024-05-19 06:11:18
16581weather8080720.9°C953.08hPa76.87%214ppm2024-05-19 05:40:32
16580weather8080720.9°C952.92hPa76.7%225ppm2024-05-19 05:25:09
16579weather8080721°C952.83hPa72.95%2217ppm2024-05-19 05:09:45
16578weather8080721°C952.91hPa72.96%2171ppm2024-05-19 04:54:22
16577weather8080721°C953.04hPa73.1%2194ppm2024-05-19 04:23:39
16576weather8080721°C953.04hPa77.09%207ppm2024-05-19 03:52:53
16575weather8080721.1°C953.21hPa77.11%222ppm2024-05-19 03:37:30
16574weather8080721°C953.18hPa77.14%215ppm2024-05-19 03:22:07
16573weather8080721°C953.18hPa77.13%257ppm2024-05-19 03:06:44
16572weather8080721.1°C953.17hPa77.14%201ppm2024-05-19 02:51:21
16571weather8080721.1°C953.26hPa77.08%216ppm2024-05-19 02:35:57
16570weather8080721.1°C953.23hPa77.04%222ppm2024-05-19 02:20:34
16569weather8080721.1°C953.47hPa77.07%208ppm2024-05-19 02:05:11
16568weather8080721.1°C953.7hPa76.97%213ppm2024-05-19 01:49:46
16567weather8080721.2°C953.94hPa76.95%214ppm2024-05-19 01:34:23
16566weather8080721.2°C954.1hPa76.88%188ppm2024-05-19 01:19:00
16565weather8080721.2°C954.06hPa76.89%267ppm2024-05-19 01:03:37
16564weather8080721.2°C954.19hPa76.81%215ppm2024-05-19 00:48:15
16563weather8080721.2°C954.35hPa76.75%228ppm2024-05-19 00:32:52
16562weather8080721.2°C954.38hPa76.73%267ppm2024-05-19 00:17:29
16561weather8080721.3°C954.34hPa76.67%251ppm2024-05-19 00:02:05
16560weather8080721.3°C953.74hPa76.64%280ppm2024-05-18 23:46:41
16559weather8080721.3°C953.26hPa76.55%252ppm2024-05-18 23:31:17
16558weather8080721.3°C953.08hPa76.46%248ppm2024-05-18 23:15:54
16557weather8080721.4°C953.15hPa76.3%281ppm2024-05-18 23:00:31
16556weather8080721.4°C953hPa76.25%271ppm2024-05-18 22:45:08
16555weather8080721.4°C952.25hPa76.2%263ppm2024-05-18 22:29:45
16554weather8080721.4°C951.37hPa76.02%279ppm2024-05-18 22:14:22
16553weather8080721.4°C951.07hPa72.14%2231ppm2024-05-18 21:58:59
16552weather8080721.4°C951.04hPa72.14%2229ppm2024-05-18 21:43:35
16551weather8080721.5°C950.77hPa76.28%288ppm2024-05-18 21:12:49
16550weather8080721.4°C950.64hPa76.27%309ppm2024-05-18 20:57:25
16549weather8080721.5°C950.59hPa72.2%2278ppm2024-05-18 20:42:03
16548weather8080721.5°C950.5hPa72.22%2249ppm2024-05-18 20:26:40
16547weather8080721.5°C950.6hPa72.43%2237ppm2024-05-18 19:55:56
16546weather8080721.5°C950.55hPa76.74%224ppm2024-05-18 19:25:12
16545weather8080721.5°C950.56hPa72.68%2175ppm2024-05-18 19:09:48
16544weather8080721.5°C950.45hPa72.66%2243ppm2024-05-18 18:54:24
16543weather8080721.6°C950.54hPa72.68%2250ppm2024-05-18 18:23:40
16542weather8080721.5°C950.75hPa72.75%2250ppm2024-05-18 17:52:54
16541weather8080721.5°C951.08hPa76.98%238ppm2024-05-18 17:22:09
16540weather8080721.6°C951.28hPa76.86%249ppm2024-05-18 17:06:45
16539weather8080721.6°C951.27hPa76.81%259ppm2024-05-18 16:51:22
16538weather8080721.6°C951.36hPa76.76%239ppm2024-05-18 16:35:59
16537weather8080721.6°C951.5hPa76.74%283ppm2024-05-18 16:20:35
16536weather8080721.6°C951.49hPa76.68%270ppm2024-05-18 16:05:12
16535weather8080721.6°C951.58hPa76.45%315ppm2024-05-18 15:49:50
16534weather8080721.6°C951.66hPa72.3%2234ppm2024-05-18 15:34:26
16533weather8080721.7°C951.72hPa72.3%2235ppm2024-05-18 15:19:03
16532weather8080721.7°C951.88hPa72.44%2246ppm2024-05-18 14:48:18
16531weather8080721.7°C952.06hPa76.38%249ppm2024-05-18 14:17:33
16530weather8080721.7°C952.13hPa72.21%1982ppm2024-05-18 14:02:09
16529weather8080721.7°C952.17hPa72.2%2228ppm2024-05-18 13:46:47
16528weather8080721.7°C952.26hPa76.41%222ppm2024-05-18 13:16:03
16527weather8080721.7°C952.34hPa76.45%215ppm2024-05-18 13:00:40
16526weather8080721.7°C952.42hPa76.52%234ppm2024-05-18 12:45:16
16525weather8080721.6°C952.34hPa76.43%256ppm2024-05-18 12:29:54
16524weather8080721.6°C952.4hPa76.63%245ppm2024-05-18 12:14:30
16523weather8080721.7°C952.54hPa76.81%239ppm2024-05-18 11:59:07
16522weather8080721.6°C952.6hPa76.65%230ppm2024-05-18 11:43:44
16521weather8080721.6°C952.82hPa76.68%226ppm2024-05-18 11:28:21
16520weather8080721.6°C952.81hPa76.67%204ppm2024-05-18 11:12:58
16519weather8080721.6°C952.84hPa76.77%249ppm2024-05-18 10:57:35
16518weather8080721.6°C952.71hPa76.91%225ppm2024-05-18 10:42:11
16517weather8080721.6°C952.77hPa77.04%237ppm2024-05-18 10:26:49
16516weather8080721.6°C952.82hPa77.12%274ppm2024-05-18 10:11:25
16515weather8080721.5°C952.82hPa77.15%241ppm2024-05-18 09:56:01
16514weather8080721.5°C952.84hPa77.08%257ppm2024-05-18 09:40:36
16513weather8080721.4°C952.78hPa77.26%201ppm2024-05-18 09:25:12
16512weather8080721.2°C952.82hPa77.33%265ppm2024-05-18 09:09:49
16511weather8080721.2°C952.86hPa77.45%236ppm2024-05-18 08:54:24
16510weather8080721.2°C952.65hPa77.63%258ppm2024-05-18 08:39:01
16509weather8080721.2°C952.75hPa77.71%203ppm2024-05-18 08:23:37
16508weather8080721.2°C952.57hPa77.84%208ppm2024-05-18 08:08:14
16507weather8080721.2°C952.58hPa77.81%218ppm2024-05-18 07:52:50
16506weather8080721.2°C952.59hPa77.93%252ppm2024-05-18 07:37:27
16505weather8080721.2°C952.44hPa78.06%271ppm2024-05-18 07:22:04
16504weather8080721.3°C952.36hPa74.44%2192ppm2024-05-18 07:06:41
16503weather8080721.3°C952.41hPa74.44%2190ppm2024-05-18 06:51:19
16502weather8080721.3°C952.33hPa74.63%2176ppm2024-05-18 06:20:34
16501weather8080721.4°C952.13hPa74.69%2184ppm2024-05-18 05:49:50
16500weather8080721.4°C952.02hPa74.82%2198ppm2024-05-18 05:19:07
16499weather8080721.5°C951.82hPa78.68%202ppm2024-05-18 04:48:22
16498weather8080721.5°C951.76hPa74.66%1970ppm2024-05-18 04:32:59
16497weather8080721.6°C951.77hPa74.69%2212ppm2024-05-18 04:17:35
16496weather8080721.6°C951.74hPa74.83%2228ppm2024-05-18 03:46:51
16495weather8080721.7°C951.66hPa75%2236ppm2024-05-18 03:16:06
16494weather8080721.7°C951.73hPa75.43%2253ppm2024-05-18 02:45:21
16493weather8080721.7°C951.8hPa80%284ppm2024-05-18 02:14:34
16492weather8080721.8°C951.92hPa75.93%2235ppm2024-05-18 01:59:11
16491weather8080721.9°C951.9hPa75.92%2287ppm2024-05-18 01:43:48
16490weather8080721.9°C951.75hPa80.83%336ppm2024-05-18 01:13:02
16489weather8080721.9°C951.74hPa80.99%242ppm2024-05-18 00:57:38
16488weather8080721.9°C951.79hPa81.13%321ppm2024-05-18 00:42:16
16487weather8080722°C951.98hPa81.34%320ppm2024-05-18 00:26:52
16486weather8080722°C951.89hPa81.71%296ppm2024-05-18 00:11:29
16485weather8080722°C952.02hPa82.42%338ppm2024-05-17 23:56:06
16484weather8080722.1°C951.92hPa82.47%345ppm2024-05-17 23:40:42
16483weather8080722.2°C951.8hPa82.61%306ppm2024-05-17 23:25:18
16482weather8080722.1°C951.83hPa83.18%362ppm2024-05-17 23:09:54
16481weather8080722.3°C951.89hPa83.5%368ppm2024-05-17 22:54:31
16480weather8080722.4°C951.87hPa79.6%2453ppm2024-05-17 22:39:07
16479weather8080722.5°C951.87hPa79.63%2469ppm2024-05-17 22:23:44
16478weather8080722.4°C951.85hPa84.85%445ppm2024-05-17 21:53:00
16477weather8080722.3°C951.73hPa84.87%431ppm2024-05-17 21:37:37
16476weather8080722.2°C951.65hPa84.84%387ppm2024-05-17 21:22:13
16475weather8080722.1°C951.44hPa85.13%412ppm2024-05-17 21:06:51
16474weather8080722.1°C951.37hPa84.54%426ppm2024-05-17 20:51:26
16473weather8080722.1°C951.26hPa85.44%477ppm2024-05-17 20:36:02
16472weather8080722.1°C951.05hPa85.94%494ppm2024-05-17 20:20:38
16471weather8080722.1°C950.99hPa86.29%560ppm2024-05-17 20:05:15
16470weather8080722.2°C950.84hPa86.7%549ppm2024-05-17 19:49:52
16469weather8080722.3°C950.69hPa86.65%571ppm2024-05-17 19:34:29
16468weather8080722.3°C950.65hPa82.24%2695ppm2024-05-17 19:19:04
16467weather8080722.3°C950.46hPa82.26%2679ppm2024-05-17 19:03:41
16466weather8080722.1°C950.23hPa87.4%609ppm2024-05-17 18:32:57
16465weather8080722.1°C950.12hPa82.48%2715ppm2024-05-17 18:17:33
16464weather8080722.1°C950.22hPa82.5%2760ppm2024-05-17 18:02:10
16463weather8080721.8°C950.19hPa81.44%2867ppm2024-05-17 17:31:25
16462weather8080722°C949.93hPa80.76%2840ppm2024-05-17 17:00:41
16461weather8080722°C949.48hPa80.67%3018ppm2024-05-17 16:29:55
16460weather8080722°C949.16hPa80.7%3014ppm2024-05-17 16:14:31
16459weather8080722.1°C949.33hPa85.78%887ppm2024-05-17 15:43:47
16458weather8080722.2°C949.57hPa86.72%851ppm2024-05-17 15:28:24
16457weather8080722°C949.56hPa86.14%803ppm2024-05-17 15:13:01
16456weather8080722°C949.46hPa85.14%722ppm2024-05-17 14:57:38
16455weather8080722°C949.28hPa84.82%682ppm2024-05-17 14:42:14
16454weather8080721.9°C949.3hPa85.24%567ppm2024-05-17 14:26:51
16453weather8080721.9°C949.2hPa84.67%530ppm2024-05-17 14:11:27
16452weather8080721.7°C949.09hPa83.29%357ppm2024-05-17 13:56:04
16451weather8080721.5°C948.98hPa74.08%323ppm2024-05-17 13:40:41
16450weather8080720.9°C948.77hPa73.57%319ppm2024-05-17 13:25:17
16449weather8080721.2°C948.8hPa71.09%2252ppm2024-05-17 13:09:54
16448weather8080721.1°C948.7hPa71.04%2298ppm2024-05-17 12:54:32
16447weather8080721°C948.6hPa77.28%466ppm2024-05-17 12:23:47
16446weather8080721.4°C948.52hPa69.65%2531ppm2024-05-17 12:08:24
16445weather8080722.5°C948.58hPa69.66%2538ppm2024-05-17 11:53:02
16444weather8080722.7°C948.36hPa74.94%3469ppm2024-05-17 11:22:18
16443weather8080722.7°C947.92hPa74.96%3474ppm2024-05-17 11:06:55
16442weather8080722.7°C947.76hPa72.41%3238ppm2024-05-17 10:36:10
16441weather8080722.5°C947.48hPa71.83%3140ppm2024-05-17 10:05:26
16440weather8080722.4°C947.06hPa71.38%2889ppm2024-05-17 09:34:42
16439weather8080722.1°C946.92hPa71.81%2748ppm2024-05-17 09:03:59
16438weather8080722°C946.8hPa70.27%2477ppm2024-05-17 08:33:13
16437weather8080722°C946.51hPa72.23%2438ppm2024-05-17 08:02:30
16436weather8080722°C946.42hPa76.18%393ppm2024-05-17 07:31:46
16435weather8080722°C946.25hPa76.11%405ppm2024-05-17 07:16:23
16434weather8080722°C945.97hPa72.4%2423ppm2024-05-17 07:01:00
16433weather8080722°C945.82hPa72.41%2438ppm2024-05-17 06:45:36
16432weather8080722°C945.8hPa72.69%2461ppm2024-05-17 06:14:52
16431weather8080722°C945.51hPa76.58%436ppm2024-05-17 05:44:09
16430weather8080722°C945.31hPa76.52%386ppm2024-05-17 05:28:45
16429weather8080722°C945.11hPa76.42%442ppm2024-05-17 05:13:21
16428weather8080722.1°C945.07hPa76.22%417ppm2024-05-17 04:57:57
16427weather8080722.1°C944.87hPa72.43%2184ppm2024-05-17 04:42:33
16426weather8080722.2°C944.92hPa72.43%2476ppm2024-05-17 04:27:11
16425weather8080722.2°C944.64hPa72.71%2521ppm2024-05-17 03:56:27
16424weather8080722.2°C944.43hPa76.93%499ppm2024-05-17 03:25:43
16423weather8080722.3°C944.34hPa76.9%488ppm2024-05-17 03:10:21
16422weather8080722.2°C944.01hPa76.86%486ppm2024-05-17 02:54:57
16421weather8080722.3°C943.85hPa76.89%563ppm2024-05-17 02:39:35
16420weather8080722.3°C943.79hPa76.88%599ppm2024-05-17 02:24:10
16419weather8080722.2°C943.69hPa76.81%672ppm2024-05-17 02:08:48
16418weather8080722.2°C943.84hPa76.81%712ppm2024-05-17 01:53:24
16417weather8080722.3°C944.11hPa76.81%729ppm2024-05-17 01:38:01
16416weather8080722.3°C944.03hPa76.81%692ppm2024-05-17 01:22:38
16415weather8080722.3°C944.14hPa76.77%639ppm2024-05-17 01:07:14
16414weather8080722.3°C943.99hPa76.77%599ppm2024-05-17 00:51:51
16413weather8080722.3°C943.55hPa77.08%566ppm2024-05-17 00:36:28
16412weather8080722.3°C943.26hPa77.57%643ppm2024-05-17 00:21:04
16411weather8080722.3°C943.05hPa77.63%691ppm2024-05-17 00:05:41
16410weather8080722.3°C943.14hPa76.32%661ppm2024-05-16 23:50:18
16409weather8080722.3°C942.98hPa75.47%601ppm2024-05-16 23:34:55
16408weather8080722.3°C942.99hPa75.41%584ppm2024-05-16 23:19:31
16407weather8080722.3°C942.95hPa75.52%629ppm2024-05-16 23:04:08
16406weather8080722.3°C943hPa75.69%674ppm2024-05-16 22:48:43
16405weather8080722.4°C943.1hPa75.69%698ppm2024-05-16 22:33:19
16404weather8080722.4°C942.94hPa75.72%634ppm2024-05-16 22:17:57
16403weather8080722.4°C942.7hPa76.24%890ppm2024-05-16 22:02:33
16402weather8080722.4°C942.8hPa76.01%735ppm2024-05-16 21:47:11
16401weather8080722.4°C942.62hPa75.7%741ppm2024-05-16 21:31:47
16400weather8080722.4°C942.81hPa71.6%2806ppm2024-05-16 21:16:23
16399weather8080722.4°C942.71hPa71.61%2815ppm2024-05-16 21:01:01
16398weather8080722.4°C942.31hPa70.95%2521ppm2024-05-16 20:30:17
16397weather8080722.3°C942.63hPa74.82%444ppm2024-05-16 19:59:30
16396weather8080722.4°C942.76hPa74.76%440ppm2024-05-16 19:44:07
16395weather8080722.3°C942.77hPa74.86%461ppm2024-05-16 19:28:42
16394weather8080722.4°C942.63hPa74.76%438ppm2024-05-16 19:13:19
16393weather8080722.4°C942.78hPa70.78%2519ppm2024-05-16 18:57:56
16392weather8080722.4°C942.85hPa70.76%2488ppm2024-05-16 18:42:33
16391weather8080722.4°C943.03hPa71.01%2506ppm2024-05-16 18:11:48
16390weather8080722.5°C943.45hPa71.17%2504ppm2024-05-16 17:41:03
16389weather8080722.5°C943.38hPa71.19%2498ppm2024-05-16 17:25:40
16388weather8080722.5°C943.59hPa75.29%417ppm2024-05-16 16:54:55
16387weather8080722.5°C943.74hPa75.23%423ppm2024-05-16 16:39:33
16386weather8080722.5°C943.76hPa75.1%440ppm2024-05-16 16:24:10
16385weather8080722.5°C944hPa71.22%2466ppm2024-05-16 16:08:46
16384weather8080722.5°C944.17hPa71.23%2502ppm2024-05-16 15:53:24
16383weather8080722.5°C944.63hPa71.49%2533ppm2024-05-16 15:22:41
16382weather8080722.5°C945.09hPa75.63%473ppm2024-05-16 14:51:54
16381weather8080722.5°C945.28hPa75.52%493ppm2024-05-16 14:36:32
16380weather8080722.5°C945.38hPa75.54%463ppm2024-05-16 14:21:07
16379weather8080722.5°C945.36hPa75.59%509ppm2024-05-16 14:05:45
16378weather8080722.5°C945.54hPa75.63%481ppm2024-05-16 13:50:22
16377weather8080722.5°C945.69hPa75.57%447ppm2024-05-16 13:34:59
16376weather8080722.5°C945.84hPa75.89%509ppm2024-05-16 13:19:35
16375weather8080722.5°C945.97hPa75.76%484ppm2024-05-16 13:04:12
16374weather8080722.5°C946.21hPa75.85%527ppm2024-05-16 12:48:48
16373weather8080722.4°C946.3hPa75.89%497ppm2024-05-16 12:33:26
16372weather8080722.5°C946.37hPa75.82%533ppm2024-05-16 12:18:02
16371weather8080722.4°C946.49hPa75.9%555ppm2024-05-16 12:02:39
16370weather8080722.5°C946.53hPa76.09%580ppm2024-05-16 11:47:17
16369weather8080722.4°C946.63hPa76.15%576ppm2024-05-16 11:31:55
16368weather8080722.4°C946.82hPa76.19%683ppm2024-05-16 11:16:32
16367weather8080722.5°C946.85hPa76.13%652ppm2024-05-16 11:01:09
16366weather8080722.4°C947.02hPa76.23%727ppm2024-05-16 10:45:45
16365weather8080722.4°C946.96hPa76.26%699ppm2024-05-16 10:30:22
16364weather8080722.4°C947.12hPa72.49%2865ppm2024-05-16 10:14:58
16363weather8080722.4°C947.31hPa72.5%2900ppm2024-05-16 09:59:36
16362weather8080722.4°C947.35hPa77.22%825ppm2024-05-16 09:28:50
16361weather8080722.3°C947.38hPa73.46%3077ppm2024-05-16 09:13:28
16360weather8080722.3°C947.5hPa73.47%3068ppm2024-05-16 08:58:05
16359weather8080722.2°C947.42hPa74.76%3264ppm2024-05-16 08:27:22
16358weather8080722.1°C947.27hPa73.98%585ppm2024-05-16 07:56:38
16357weather8080722.1°C947.14hPa73.69%277ppm2024-05-16 07:41:15
16356weather8080722.2°C947.3hPa73.53%252ppm2024-05-16 07:25:53
16355weather8080722.1°C947.43hPa73.34%293ppm2024-05-16 07:10:30
16354weather8080722.1°C947.59hPa69.55%2326ppm2024-05-16 06:55:06
16353weather8080722.1°C947.55hPa69.56%2288ppm2024-05-16 06:39:44
16352weather8080722.2°C947.69hPa69.51%2282ppm2024-05-16 06:09:00
16351weather8080722.2°C947.7hPa69.54%2289ppm2024-05-16 05:38:16
16350weather8080722.2°C947.26hPa69.59%2295ppm2024-05-16 05:07:31
16349weather8080722.2°C947.16hPa72.94%275ppm2024-05-16 04:36:47
16348weather8080722.2°C947.05hPa72.75%305ppm2024-05-16 04:21:23
16347weather8080722.2°C946.94hPa72.4%274ppm2024-05-16 04:06:00
16346weather8080722.2°C947.11hPa68.6%2357ppm2024-05-16 03:50:37
16345weather8080722.2°C947.15hPa68.58%2316ppm2024-05-16 03:35:15
16344weather8080722.2°C947.02hPa72.42%339ppm2024-05-16 03:04:30
16343weather8080722.3°C947.05hPa72.54%283ppm2024-05-16 02:49:06
16342weather8080722.2°C946.83hPa72.6%273ppm2024-05-16 02:33:42
16341weather8080722.2°C946.65hPa72.65%279ppm2024-05-16 02:18:19
16340weather8080722.3°C946.69hPa72.85%317ppm2024-05-16 02:02:56
16339weather8080722.3°C946.42hPa72.93%299ppm2024-05-16 01:47:32
16338weather8080722.3°C946.21hPa69.43%2287ppm2024-05-16 01:32:09
16337weather8080722.3°C946.21hPa69.43%2315ppm2024-05-16 01:16:45
16336weather8080722.3°C946.2hPa74.11%302ppm2024-05-16 00:45:59
16335weather8080722.4°C946.12hPa74.15%340ppm2024-05-16 00:30:36
16334weather8080722.4°C946.03hPa70.52%2237ppm2024-05-16 00:15:13
16333weather8080722.4°C946hPa70.47%2318ppm2024-05-15 23:59:50
16332weather8080722.4°C945.85hPa71.31%2375ppm2024-05-15 23:29:05
16331weather8080722.5°C945.95hPa76.85%372ppm2024-05-15 22:58:19
16330weather8080722.5°C945.96hPa77.49%471ppm2024-05-15 22:42:56
16329weather8080722.5°C945.92hPa78.47%478ppm2024-05-15 22:27:32
16328weather8080722.5°C945.8hPa78.96%541ppm2024-05-15 22:12:10
16327weather8080722.4°C945.61hPa73.45%2531ppm2024-05-15 21:56:46
16326weather8080722.5°C945.74hPa73.46%2607ppm2024-05-15 21:41:24
16325weather8080722.6°C945.61hPa78.75%647ppm2024-05-15 21:10:40
16324weather8080722.6°C945.32hPa78.41%588ppm2024-05-15 20:55:17
16323weather8080722.6°C945.44hPa73.96%2721ppm2024-05-15 20:39:53
16322weather8080722.6°C945.39hPa74%2724ppm2024-05-15 20:24:31
16321weather8080722.6°C945.49hPa73.19%2786ppm2024-05-15 19:53:46
16320weather8080722.7°C945.64hPa72.17%2663ppm2024-05-15 19:23:02
16319weather8080722.6°C945.76hPa72.17%2611ppm2024-05-15 19:07:40
16318weather8080722.6°C945.91hPa72.05%2756ppm2024-05-15 18:36:55
16317weather8080722.7°C946.04hPa72.06%2986ppm2024-05-15 18:06:11
16316weather8080722.7°C946.17hPa72.24%3164ppm2024-05-15 17:35:26
16315weather8080722.7°C946.4hPa72.43%3154ppm2024-05-15 17:04:41
16314weather8080722.7°C946.7hPa72.13%3435ppm2024-05-15 16:33:57
16313weather8080722.7°C946.92hPa71.53%3217ppm2024-05-15 16:03:11
16312weather8080722.7°C947.06hPa75.17%816ppm2024-05-15 15:32:26
16311weather8080722.7°C947.41hPa74.22%676ppm2024-05-15 15:17:03
16310weather8080722.7°C947.06hPa73.6%514ppm2024-05-15 15:01:39
16309weather8080722.8°C946.59hPa73.87%427ppm2024-05-15 14:46:15
16308weather8080722.8°C946.58hPa70.03%2407ppm2024-05-15 14:30:52
16307weather8080722.8°C946.61hPa70.04%2409ppm2024-05-15 14:15:30
16306weather8080722.9°C946.71hPa71.14%2549ppm2024-05-15 13:44:45
16305weather8080723°C946.8hPa71.11%2577ppm2024-05-15 13:29:22
16304weather8080722.8°C946.98hPa74.06%455ppm2024-05-15 12:58:36
16303weather8080722.8°C947.09hPa74.12%486ppm2024-05-15 12:43:14
16302weather8080722.9°C947.11hPa73.78%411ppm2024-05-15 12:27:51
16301weather8080722.8°C947.2hPa74.95%497ppm2024-05-15 12:12:27
16300weather8080722.7°C947.08hPa75.87%529ppm2024-05-15 11:57:03
16299weather8080722.7°C947.06hPa77.32%632ppm2024-05-15 11:41:40
16298weather8080722.7°C946.97hPa79.3%892ppm2024-05-15 11:26:15
16297weather8080722.6°C946.99hPa79.35%855ppm2024-05-15 11:10:51
16296weather8080722.5°C946.98hPa79.6%778ppm2024-05-15 10:55:28
16295weather8080722.4°C947.08hPa73.98%3127ppm2024-05-15 10:40:05
16294weather8080722.4°C947hPa73.93%3111ppm2024-05-15 10:24:48
16293weather8080722.3°C947.05hPa71.68%2745ppm2024-05-15 09:53:57
16292weather8080722.2°C947.01hPa71.7%2799ppm2024-05-15 09:38:34
16291weather8080721.9°C946.9hPa69.47%2529ppm2024-05-15 09:07:49
16290weather8080721.8°C946.77hPa69.9%2555ppm2024-05-15 08:37:05
16289weather8080721.8°C946.75hPa74.09%523ppm2024-05-15 08:06:21
16288weather8080721.9°C946.6hPa74.22%526ppm2024-05-15 07:50:58
16287weather8080721.8°C946.67hPa74.12%546ppm2024-05-15 07:35:34
16286weather8080721.9°C946.46hPa74.08%482ppm2024-05-15 07:20:10
16285weather8080721.9°C946.41hPa74.07%492ppm2024-05-15 07:04:46
16284weather8080721.8°C946.31hPa74.07%473ppm2024-05-15 06:49:22
16283weather8080721.8°C946.21hPa74.06%501ppm2024-05-15 06:33:59
16282weather8080721.8°C946.24hPa74.09%433ppm2024-05-15 06:18:36
16281weather8080721.7°C946.13hPa74.11%462ppm2024-05-15 06:03:12
16280weather8080721.8°C946.13hPa74.13%439ppm2024-05-15 05:47:49
16279weather8080721.7°C946.21hPa74.13%431ppm2024-05-15 05:32:25
16278weather8080721.8°C946.23hPa74.14%484ppm2024-05-15 05:17:01
16277weather8080721.8°C946.12hPa74.17%413ppm2024-05-15 05:01:39
16276weather8080721.8°C946.08hPa74.13%426ppm2024-05-15 04:46:15
16275weather8080721.8°C946.02hPa74%419ppm2024-05-15 04:30:52
16274weather8080721.8°C946.09hPa70.32%2484ppm2024-05-15 04:15:29
16273weather8080721.9°C946.02hPa70.31%2501ppm2024-05-15 04:00:06
16272weather8080721.9°C946.12hPa74.05%446ppm2024-05-15 03:29:21
16271weather8080722°C946.12hPa70.3%2235ppm2024-05-15 03:13:58
16270weather8080721.9°C946.08hPa70.26%2483ppm2024-05-15 02:58:36
16269weather8080722°C946.19hPa70.38%2516ppm2024-05-15 02:27:50
16268weather8080722°C946.22hPa70.69%2528ppm2024-05-15 01:57:06
16267weather8080722°C946.48hPa74.56%471ppm2024-05-15 01:26:21
16266weather8080722°C946.38hPa70.9%2487ppm2024-05-15 01:10:57
16265weather8080722°C946.45hPa70.91%2522ppm2024-05-15 00:55:33
16264weather8080722.1°C946.52hPa71.15%2538ppm2024-05-15 00:24:48
16263weather8080722.1°C946.7hPa71.73%2575ppm2024-05-14 23:54:05
16262weather8080722.1°C946.79hPa72.57%2656ppm2024-05-14 23:23:20
16261weather8080722.1°C946.93hPa73.35%458ppm2024-05-14 22:52:35
16260weather8080722.1°C947.07hPa73.14%411ppm2024-05-14 22:37:11
16259weather8080722°C947.01hPa72.93%366ppm2024-05-14 22:21:47
16258weather8080722°C947.15hPa72.7%430ppm2024-05-14 22:06:25
16257weather8080722°C947.14hPa68.85%2474ppm2024-05-14 21:51:02
16256weather8080722.1°C947.09hPa68.82%2460ppm2024-05-14 21:35:39
16255weather8080722.1°C946.98hPa68.83%2505ppm2024-05-14 21:04:56
16254weather8080722.2°C947.06hPa69.02%2584ppm2024-05-14 20:34:12
16253weather8080722.2°C947.01hPa72.59%470ppm2024-05-14 20:03:28
16252weather8080722.2°C946.88hPa72.66%507ppm2024-05-14 19:48:05
16251weather8080722.3°C946.84hPa72.73%571ppm2024-05-14 19:32:42
16250weather8080722.3°C946.69hPa72.95%663ppm2024-05-14 19:17:19
16249weather8080722.4°C946.73hPa72.87%691ppm2024-05-14 19:01:55
16248weather8080722.4°C946.69hPa72.94%719ppm2024-05-14 18:46:32
16247weather8080722.4°C946.64hPa72.91%712ppm2024-05-14 18:31:09
16246weather8080722.4°C946.72hPa73.05%705ppm2024-05-14 18:15:46
16245weather8080722.4°C946.92hPa73.09%724ppm2024-05-14 18:00:22
16244weather8080722.4°C946.94hPa73.1%786ppm2024-05-14 17:44:58
16243weather8080722.4°C946.99hPa73.31%902ppm2024-05-14 17:29:34
16242weather8080722.4°C947.17hPa73.49%877ppm2024-05-14 17:14:10
16241weather8080722.4°C947.23hPa70.16%3193ppm2024-05-14 16:58:46
16240weather8080722.4°C947.33hPa70.22%3265ppm2024-05-14 16:43:23
16239weather8080722.3°C947.41hPa69.49%2982ppm2024-05-14 16:12:38
16238weather8080722.3°C947.81hPa73.16%622ppm2024-05-14 15:41:53
16237weather8080722.3°C947.81hPa73.02%583ppm2024-05-14 15:26:30
16236weather8080722.2°C947.96hPa72.68%439ppm2024-05-14 15:11:06
16235weather8080722.2°C948.03hPa72.8%462ppm2024-05-14 14:55:42
16234weather8080722.2°C948.11hPa72.92%395ppm2024-05-14 14:40:18
16233weather8080722.2°C948.07hPa73.14%387ppm2024-05-14 14:24:55
16232weather8080722.2°C948.22hPa73.2%425ppm2024-05-14 14:09:31
16231weather8080722.2°C948.39hPa73.31%464ppm2024-05-14 13:54:08
16230weather8080722.2°C948.46hPa69.53%2467ppm2024-05-14 13:38:44
16229weather8080722.2°C948.77hPa69.49%2490ppm2024-05-14 13:23:21
16228weather8080722.1°C949.02hPa73.42%437ppm2024-05-14 12:52:36
16227weather8080722.2°C949.12hPa73.76%584ppm2024-05-14 12:37:12
16226weather8080722.2°C949.25hPa73.6%511ppm2024-05-14 12:21:49
16225weather8080722.1°C949.37hPa73.08%533ppm2024-05-14 12:06:25
16224weather8080722.1°C949.47hPa72.15%385ppm2024-05-14 11:51:02
16223weather8080722.1°C949.54hPa71.82%278ppm2024-05-14 11:35:39
16222weather8080721.9°C949.5hPa72.65%262ppm2024-05-14 11:20:16
16221weather8080721.8°C949.7hPa73.15%262ppm2024-05-14 11:04:51

Nasa satellite image

via Nasa API updated daily and modifications with computer vision https://api.nasa.gov/planetary/earth/imagery? https://api.nasa.gov/planetary/earth/imagery?